sensor_id;sensor_type;location;lat;lon;timestamp;temperature;humidity
13472;DHT22;6808;49.444;11.034;2023-03-31T00:00:31;10.40;99.90
13472;DHT22;6808;49.444;11.034;2023-03-31T00:02:57;10.40;99.90
13472;DHT22;6808;49.444;11.034;2023-03-31T00:05:23;10.30;99.90
13472;DHT22;6808;49.444;11.034;2023-03-31T00:07:56;10.30;99.90
13472;DHT22;6808;49.444;11.034;2023-03-31T00:10:32;10.30;99.90
13472;DHT22;6808;49.444;11.034;2023-03-31T00:12:59;10.30;99.90
13472;DHT22;6808;49.444;11.034;2023-03-31T00:15:25;10.30;99.90
13472;DHT22;6808;49.444;11.034;2023-03-31T00:17:51;10.30;99.90
13472;DHT22;6808;49.444;11.034;2023-03-31T00:20:17;10.20;99.90
13472;DHT22;6808;49.444;11.034;2023-03-31T00:22:42;10.20;99.90
13472;DHT22;6808;49.444;11.034;2023-03-31T00:25:11;10.20;99.90
13472;DHT22;6808;49.444;11.034;2023-03-31T00:27:37;10.20;99.90
13472;DHT22;6808;49.444;11.034;2023-03-31T00:30:03;10.10;99.90
13472;DHT22;6808;49.444;11.034;2023-03-31T00:32:29;10.20;99.90
13472;DHT22;6808;49.444;11.034;2023-03-31T00:34:55;10.10;99.90
13472;DHT22;6808;49.444;11.034;2023-03-31T00:37:20;10.20;99.90
13472;DHT22;6808;49.444;11.034;2023-03-31T00:39:46;10.10;99.90
13472;DHT22;6808;49.444;11.034;2023-03-31T00:42:12;10.10;99.90
13472;DHT22;6808;49.444;11.034;2023-03-31T00:47:51;10.00;99.90
13472;DHT22;6808;49.444;11.034;2023-03-31T00:50:31;9.90;99.90
13472;DHT22;6808;49.444;11.034;2023-03-31T00:53:04;9.90;99.90
13472;DHT22;6808;49.444;11.034;2023-03-31T00:55:39;9.90;99.90
13472;DHT22;6808;49.444;11.034;2023-03-31T00:58:07;9.90;99.90
13472;DHT22;6808;49.444;11.034;2023-03-31T01:00:33;9.90;99.90
13472;DHT22;6808;49.444;11.034;2023-03-31T01:03:02;9.90;99.90
13472;DHT22;6808;49.444;11.034;2023-03-31T01:05:44;10.00;99.90
13472;DHT22;6808;49.444;11.034;2023-03-31T01:08:13;10.00;99.90
13472;DHT22;6808;49.444;11.034;2023-03-31T01:10:44;9.90;99.90
13472;DHT22;6808;49.444;11.034;2023-03-31T01:13:12;9.90;99.90
13472;DHT22;6808;49.444;11.034;2023-03-31T01:15:40;9.90;99.90
13472;DHT22;6808;49.444;11.034;2023-03-31T01:18:07;9.90;99.90
13472;DHT22;6808;49.444;11.034;2023-03-31T01:26:15;9.80;99.90
13472;DHT22;6808;49.444;11.034;2023-03-31T01:34:23;9.80;99.90
13472;DHT22;6808;49.444;11.034;2023-03-31T01:48:01;9.80;99.90
13472;DHT22;6808;49.444;11.034;2023-03-31T01:58:35;9.70;99.90
13472;DHT22;6808;49.444;11.034;2023-03-31T02:01:24;9.70;99.90
13472;DHT22;6808;49.444;11.034;2023-03-31T02:04:06;9.70;99.90
13472;DHT22;6808;49.444;11.034;2023-03-31T02:06:37;9.70;99.90
13472;DHT22;6808;49.444;11.034;2023-03-31T02:09:16;9.70;99.90
13472;DHT22;6808;49.444;11.034;2023-03-31T02:11:44;9.70;99.90
13472;DHT22;6808;49.444;11.034;2023-03-31T02:14:14;9.60;99.90
13472;DHT22;6808;49.444;11.034;2023-03-31T02:16:44;9.60;99.90
13472;DHT22;6808;49.444;11.034;2023-03-31T02:19:12;9.60;99.90
13472;DHT22;6808;49.444;11.034;2023-03-31T02:21:45;9.70;99.90
13472;DHT22;6808;49.444;11.034;2023-03-31T02:24:16;9.70;99.90
13472;DHT22;6808;49.444;11.034;2023-03-31T02:26:56;9.70;99.90
13472;DHT22;6808;49.444;11.034;2023-03-31T02:29:25;9.60;99.90
13472;DHT22;6808;49.444;11.034;2023-03-31T02:32:10;9.70;99.90
13472;DHT22;6808;49.444;11.034;2023-03-31T02:34:37;9.70;99.90
13472;DHT22;6808;49.444;11.034;2023-03-31T02:37:03;9.60;99.90
13472;DHT22;6808;49.444;11.034;2023-03-31T02:39:32;9.70;99.90
13472;DHT22;6808;49.444;11.034;2023-03-31T02:41:59;9.60;99.90
13472;DHT22;6808;49.444;11.034;2023-03-31T02:44:35;9.60;99.90
13472;DHT22;6808;49.444;11.034;2023-03-31T02:47:03;9.60;99.90
13472;DHT22;6808;49.444;11.034;2023-03-31T02:49:31;9.60;99.90
13472;DHT22;6808;49.444;11.034;2023-03-31T02:52:14;9.60;99.90
13472;DHT22;6808;49.444;11.034;2023-03-31T02:58:00;9.50;99.90
13472;DHT22;6808;49.444;11.034;2023-03-31T03:03:32;9.50;99.90
13472;DHT22;6808;49.444;11.034;2023-03-31T03:13:59;9.50;99.90
13472;DHT22;6808;49.444;11.034;2023-03-31T03:16:36;9.60;99.90
13472;DHT22;6808;49.444;11.034;2023-03-31T03:19:05;9.60;99.90
13472;DHT22;6808;49.444;11.034;2023-03-31T03:21:31;9.50;99.90
13472;DHT22;6808;49.444;11.034;2023-03-31T03:23:58;9.50;99.90
13472;DHT22;6808;49.444;11.034;2023-03-31T03:26:24;9.50;99.90
13472;DHT22;6808;49.444;11.034;2023-03-31T03:28:53;9.50;99.90
13472;DHT22;6808;49.444;11.034;2023-03-31T03:31:19;9.50;99.90
13472;DHT22;6808;49.444;11.034;2023-03-31T03:33:45;9.50;99.90
13472;DHT22;6808;49.444;11.034;2023-03-31T03:36:11;9.60;99.90
13472;DHT22;6808;49.444;11.034;2023-03-31T03:38:37;9.50;99.90
13472;DHT22;6808;49.444;11.034;2023-03-31T03:41:03;9.50;99.90
13472;DHT22;6808;49.444;11.034;2023-03-31T03:43:28;9.50;99.90
13472;DHT22;6808;49.444;11.034;2023-03-31T03:45:54;9.50;99.90
13472;DHT22;6808;49.444;11.034;2023-03-31T03:48:20;9.50;99.90
13472;DHT22;6808;49.444;11.034;2023-03-31T03:50:46;9.60;99.90
13472;DHT22;6808;49.444;11.034;2023-03-31T03:53:12;9.60;99.90
13472;DHT22;6808;49.444;11.034;2023-03-31T03:55:38;9.60;99.90
13472;DHT22;6808;49.444;11.034;2023-03-31T03:58:04;9.50;99.90
13472;DHT22;6808;49.444;11.034;2023-03-31T04:00:30;9.50;99.90
13472;DHT22;6808;49.444;11.034;2023-03-31T04:02:55;9.50;99.90
13472;DHT22;6808;49.444;11.034;2023-03-31T04:05:21;9.50;99.90
13472;DHT22;6808;49.444;11.034;2023-03-31T04:07:47;9.50;99.90
13472;DHT22;6808;49.444;11.034;2023-03-31T04:10:12;9.50;99.90
13472;DHT22;6808;49.444;11.034;2023-03-31T04:12:38;9.50;99.90
13472;DHT22;6808;49.444;11.034;2023-03-31T04:15:04;9.50;99.90
13472;DHT22;6808;49.444;11.034;2023-03-31T04:17:30;9.50;99.90
13472;DHT22;6808;49.444;11.034;2023-03-31T04:20:05;9.50;99.90
13472;DHT22;6808;49.444;11.034;2023-03-31T04:22:33;9.50;99.90
13472;DHT22;6808;49.444;11.034;2023-03-31T04:25:06;9.50;99.90
13472;DHT22;6808;49.444;11.034;2023-03-31T04:27:40;9.50;99.90
13472;DHT22;6808;49.444;11.034;2023-03-31T04:30:12;9.50;99.90
13472;DHT22;6808;49.444;11.034;2023-03-31T04:32:37;9.50;99.90
13472;DHT22;6808;49.444;11.034;2023-03-31T04:35:03;9.50;99.90
13472;DHT22;6808;49.444;11.034;2023-03-31T04:37:30;9.50;99.90
13472;DHT22;6808;49.444;11.034;2023-03-31T04:40:02;9.50;99.90
13472;DHT22;6808;49.444;11.034;2023-03-31T04:42:34;9.50;99.90
13472;DHT22;6808;49.444;11.034;2023-03-31T04:45:00;9.60;99.90
13472;DHT22;6808;49.444;11.034;2023-03-31T04:47:25;9.60;99.90
13472;DHT22;6808;49.444;11.034;2023-03-31T04:49:51;9.60;99.90
13472;DHT22;6808;49.444;11.034;2023-03-31T04:52:16;9.80;99.90
13472;DHT22;6808;49.444;11.034;2023-03-31T04:54:42;9.60;99.90
13472;DHT22;6808;49.444;11.034;2023-03-31T04:57:07;9.60;99.90
13472;DHT22;6808;49.444;11.034;2023-03-31T04:59:33;9.70;99.90
13472;DHT22;6808;49.444;11.034;2023-03-31T05:01:58;9.60;99.90
13472;DHT22;6808;49.444;11.034;2023-03-31T05:04:24;9.60;99.90
13472;DHT22;6808;49.444;11.034;2023-03-31T05:06:50;9.70;99.90
13472;DHT22;6808;49.444;11.034;2023-03-31T05:09:15;9.60;99.90
13472;DHT22;6808;49.444;11.034;2023-03-31T05:11:41;9.60;99.90
13472;DHT22;6808;49.444;11.034;2023-03-31T05:14:06;9.60;99.90
13472;DHT22;6808;49.444;11.034;2023-03-31T05:16:32;9.60;99.90
13472;DHT22;6808;49.444;11.034;2023-03-31T05:18:58;9.60;99.90
13472;DHT22;6808;49.444;11.034;2023-03-31T05:21:23;9.60;99.90
13472;DHT22;6808;49.444;11.034;2023-03-31T05:23:51;9.60;99.90
13472;DHT22;6808;49.444;11.034;2023-03-31T05:26:16;9.60;99.90
13472;DHT22;6808;49.444;11.034;2023-03-31T05:28:42;9.70;99.90
13472;DHT22;6808;49.444;11.034;2023-03-31T05:31:08;9.60;99.90
13472;DHT22;6808;49.444;11.034;2023-03-31T05:33:35;9.60;99.90
13472;DHT22;6808;49.444;11.034;2023-03-31T05:36:11;9.50;99.90
13472;DHT22;6808;49.444;11.034;2023-03-31T05:38:38;9.60;99.90
13472;DHT22;6808;49.444;11.034;2023-03-31T05:41:04;9.50;99.90
13472;DHT22;6808;49.444;11.034;2023-03-31T05:43:31;9.60;99.90
13472;DHT22;6808;49.444;11.034;2023-03-31T05:45:57;9.50;99.90
13472;DHT22;6808;49.444;11.034;2023-03-31T05:48:22;9.60;99.90
13472;DHT22;6808;49.444;11.034;2023-03-31T05:50:48;9.50;99.90
13472;DHT22;6808;49.444;11.034;2023-03-31T05:53:13;9.60;99.90
13472;DHT22;6808;49.444;11.034;2023-03-31T05:55:39;9.60;99.90
13472;DHT22;6808;49.444;11.034;2023-03-31T05:58:05;9.60;99.90
13472;DHT22;6808;49.444;11.034;2023-03-31T06:00:31;9.60;99.90
13472;DHT22;6808;49.444;11.034;2023-03-31T06:02:57;9.70;99.90
13472;DHT22;6808;49.444;11.034;2023-03-31T06:05:24;9.70;99.90
13472;DHT22;6808;49.444;11.034;2023-03-31T06:07:52;9.70;99.90
13472;DHT22;6808;49.444;11.034;2023-03-31T06:10:18;9.70;99.90
13472;DHT22;6808;49.444;11.034;2023-03-31T06:12:44;9.70;99.90
13472;DHT22;6808;49.444;11.034;2023-03-31T06:15:10;9.70;99.90
13472;DHT22;6808;49.444;11.034;2023-03-31T06:17:35;9.70;99.90
13472;DHT22;6808;49.444;11.034;2023-03-31T06:20:01;9.70;99.90
13472;DHT22;6808;49.444;11.034;2023-03-31T06:22:26;9.70;99.90
13472;DHT22;6808;49.444;11.034;2023-03-31T06:24:52;9.70;99.90
13472;DHT22;6808;49.444;11.034;2023-03-31T06:27:17;9.70;99.90
13472;DHT22;6808;49.444;11.034;2023-03-31T06:29:43;9.80;99.90
13472;DHT22;6808;49.444;11.034;2023-03-31T06:32:08;9.70;99.90
13472;DHT22;6808;49.444;11.034;2023-03-31T06:34:34;9.70;99.90
13472;DHT22;6808;49.444;11.034;2023-03-31T06:36:59;9.70;99.90
13472;DHT22;6808;49.444;11.034;2023-03-31T06:39:25;9.80;99.90
13472;DHT22;6808;49.444;11.034;2023-03-31T06:41:51;9.80;99.90
13472;DHT22;6808;49.444;11.034;2023-03-31T06:44:16;9.80;99.90
13472;DHT22;6808;49.444;11.034;2023-03-31T06:46:43;9.80;99.90
13472;DHT22;6808;49.444;11.034;2023-03-31T06:49:09;9.70;99.90
13472;DHT22;6808;49.444;11.034;2023-03-31T06:51:34;9.80;99.90
13472;DHT22;6808;49.444;11.034;2023-03-31T06:54:00;9.70;99.90
13472;DHT22;6808;49.444;11.034;2023-03-31T06:56:25;9.70;99.90
13472;DHT22;6808;49.444;11.034;2023-03-31T06:58:52;9.60;99.90
13472;DHT22;6808;49.444;11.034;2023-03-31T07:01:17;9.60;99.90
13472;DHT22;6808;49.444;11.034;2023-03-31T07:03:43;9.60;99.90
13472;DHT22;6808;49.444;11.034;2023-03-31T07:06:09;9.60;99.90
13472;DHT22;6808;49.444;11.034;2023-03-31T07:08:34;9.60;99.90
13472;DHT22;6808;49.444;11.034;2023-03-31T07:11:01;9.60;99.90
13472;DHT22;6808;49.444;11.034;2023-03-31T07:13:27;9.50;99.90
13472;DHT22;6808;49.444;11.034;2023-03-31T07:15:54;9.50;99.90
13472;DHT22;6808;49.444;11.034;2023-03-31T07:18:20;9.50;99.90
13472;DHT22;6808;49.444;11.034;2023-03-31T07:20:49;9.50;99.90
13472;DHT22;6808;49.444;11.034;2023-03-31T07:23:15;9.50;99.90
13472;DHT22;6808;49.444;11.034;2023-03-31T07:25:41;9.50;99.90
13472;DHT22;6808;49.444;11.034;2023-03-31T07:28:06;9.40;99.90
13472;DHT22;6808;49.444;11.034;2023-03-31T07:30:32;9.50;99.90
13472;DHT22;6808;49.444;11.034;2023-03-31T07:32:58;9.50;99.90
13472;DHT22;6808;49.444;11.034;2023-03-31T07:35:24;9.50;99.90
13472;DHT22;6808;49.444;11.034;2023-03-31T07:37:50;9.50;99.90
13472;DHT22;6808;49.444;11.034;2023-03-31T07:40:22;9.50;99.90
13472;DHT22;6808;49.444;11.034;2023-03-31T07:42:49;9.60;99.90
13472;DHT22;6808;49.444;11.034;2023-03-31T07:45:17;9.60;99.90
13472;DHT22;6808;49.444;11.034;2023-03-31T07:47:43;9.60;99.90
13472;DHT22;6808;49.444;11.034;2023-03-31T07:50:11;9.50;99.90
13472;DHT22;6808;49.444;11.034;2023-03-31T07:52:39;9.50;99.90
13472;DHT22;6808;49.444;11.034;2023-03-31T07:55:06;9.50;99.90
13472;DHT22;6808;49.444;11.034;2023-03-31T07:57:33;9.40;99.90
13472;DHT22;6808;49.444;11.034;2023-03-31T07:59:59;9.40;99.90
13472;DHT22;6808;49.444;11.034;2023-03-31T08:02:24;9.50;99.90
13472;DHT22;6808;49.444;11.034;2023-03-31T08:04:50;9.60;99.90
13472;DHT22;6808;49.444;11.034;2023-03-31T08:07:16;9.60;99.90
13472;DHT22;6808;49.444;11.034;2023-03-31T08:09:45;9.60;99.90
13472;DHT22;6808;49.444;11.034;2023-03-31T08:12:12;9.60;99.90
13472;DHT22;6808;49.444;11.034;2023-03-31T08:14:38;9.60;99.90
13472;DHT22;6808;49.444;11.034;2023-03-31T08:17:04;9.60;99.90
13472;DHT22;6808;49.444;11.034;2023-03-31T08:19:29;9.60;99.90
13472;DHT22;6808;49.444;11.034;2023-03-31T08:21:55;9.60;99.90
13472;DHT22;6808;49.444;11.034;2023-03-31T08:24:21;9.60;99.90
13472;DHT22;6808;49.444;11.034;2023-03-31T08:26:46;9.60;99.90
13472;DHT22;6808;49.444;11.034;2023-03-31T08:29:12;9.60;99.90
13472;DHT22;6808;49.444;11.034;2023-03-31T08:31:37;9.50;99.90
13472;DHT22;6808;49.444;11.034;2023-03-31T08:34:03;9.50;99.90
13472;DHT22;6808;49.444;11.034;2023-03-31T08:36:29;9.50;99.90
13472;DHT22;6808;49.444;11.034;2023-03-31T08:38:55;9.50;99.90
13472;DHT22;6808;49.444;11.034;2023-03-31T08:41:33;9.60;99.90
13472;DHT22;6808;49.444;11.034;2023-03-31T08:44:04;9.60;99.90
13472;DHT22;6808;49.444;11.034;2023-03-31T08:46:31;9.60;99.90
13472;DHT22;6808;49.444;11.034;2023-03-31T08:48:59;9.60;99.90
13472;DHT22;6808;49.444;11.034;2023-03-31T08:54:29;9.70;99.90
13472;DHT22;6808;49.444;11.034;2023-03-31T08:56:51;9.70;99.90
13472;DHT22;6808;49.444;11.034;2023-03-31T08:59:28;9.80;99.90
13472;DHT22;6808;49.444;11.034;2023-03-31T09:10:55;10.10;99.90
13472;DHT22;6808;49.444;11.034;2023-03-31T09:13:54;10.10;99.90
13472;DHT22;6808;49.444;11.034;2023-03-31T09:16:51;10.10;99.90
13472;DHT22;6808;49.444;11.034;2023-03-31T09:19:34;10.20;99.90
13472;DHT22;6808;49.444;11.034;2023-03-31T09:22:02;10.20;99.90
13472;DHT22;6808;49.444;11.034;2023-03-31T09:24:30;10.20;99.90
13472;DHT22;6808;49.444;11.034;2023-03-31T09:27:06;10.20;99.90
13472;DHT22;6808;49.444;11.034;2023-03-31T09:32:13;10.30;99.90
13472;DHT22;6808;49.444;11.034;2023-03-31T09:34:39;10.40;99.90
13472;DHT22;6808;49.444;11.034;2023-03-31T09:37:05;10.40;99.90
13472;DHT22;6808;49.444;11.034;2023-03-31T09:39:30;10.50;99.90
13472;DHT22;6808;49.444;11.034;2023-03-31T09:41:56;10.60;99.90
13472;DHT22;6808;49.444;11.034;2023-03-31T09:44:30;10.60;99.90
13472;DHT22;6808;49.444;11.034;2023-03-31T09:47:01;10.70;99.90
13472;DHT22;6808;49.444;11.034;2023-03-31T09:49:31;10.70;99.90
13472;DHT22;6808;49.444;11.034;2023-03-31T09:52:33;10.80;99.90
13472;DHT22;6808;49.444;11.034;2023-03-31T09:55:03;11.10;99.90
13472;DHT22;6808;49.444;11.034;2023-03-31T09:57:34;11.40;99.90
13472;DHT22;6808;49.444;11.034;2023-03-31T10:00:17;11.60;99.90
13472;DHT22;6808;49.444;11.034;2023-03-31T10:02:48;11.80;99.90
13472;DHT22;6808;49.444;11.034;2023-03-31T10:05:33;12.10;99.90
13472;DHT22;6808;49.444;11.034;2023-03-31T10:10:36;12.60;99.90
13472;DHT22;6808;49.444;11.034;2023-03-31T10:13:07;12.40;99.90
13472;DHT22;6808;49.444;11.034;2023-03-31T10:15:36;12.60;99.90
13472;DHT22;6808;49.444;11.034;2023-03-31T10:18:02;12.90;99.90
13472;DHT22;6808;49.444;11.034;2023-03-31T10:20:38;13.40;99.90
13472;DHT22;6808;49.444;11.034;2023-03-31T10:25:49;13.10;99.90
13472;DHT22;6808;49.444;11.034;2023-03-31T10:28:17;13.10;99.90
13472;DHT22;6808;49.444;11.034;2023-03-31T10:30:48;13.80;99.90
13472;DHT22;6808;49.444;11.034;2023-03-31T10:33:26;13.20;99.90
13472;DHT22;6808;49.444;11.034;2023-03-31T10:35:58;13.30;99.90
13472;DHT22;6808;49.444;11.034;2023-03-31T10:40:54;12.90;99.90
13472;DHT22;6808;49.444;11.034;2023-03-31T10:43:25;13.10;99.90
13472;DHT22;6808;49.444;11.034;2023-03-31T10:45:54;14.60;99.90
13472;DHT22;6808;49.444;11.034;2023-03-31T10:51:17;13.40;99.90
13472;DHT22;6808;49.444;11.034;2023-03-31T10:53:45;13.60;99.90
13472;DHT22;6808;49.444;11.034;2023-03-31T11:07:03;14.10;99.90
13472;DHT22;6808;49.444;11.034;2023-03-31T11:18:11;13.70;99.90
13472;DHT22;6808;49.444;11.034;2023-03-31T11:23:58;13.80;99.90
13472;DHT22;6808;49.444;11.034;2023-03-31T11:26:52;14.10;99.90
13472;DHT22;6808;49.444;11.034;2023-03-31T11:29:24;14.30;99.90
13472;DHT22;6808;49.444;11.034;2023-03-31T11:40:58;14.80;99.90
13472;DHT22;6808;49.444;11.034;2023-03-31T11:45:59;14.10;99.90
13472;DHT22;6808;49.444;11.034;2023-03-31T11:48:43;13.40;99.90
13472;DHT22;6808;49.444;11.034;2023-03-31T11:51:20;13.20;99.90
13472;DHT22;6808;49.444;11.034;2023-03-31T11:53:50;13.00;99.90
13472;DHT22;6808;49.444;11.034;2023-03-31T11:56:18;13.00;99.90
13472;DHT22;6808;49.444;11.034;2023-03-31T11:58:57;12.90;99.90
13472;DHT22;6808;49.444;11.034;2023-03-31T12:01:41;12.40;99.90
13472;DHT22;6808;49.444;11.034;2023-03-31T12:06:44;12.30;99.90
13472;DHT22;6808;49.444;11.034;2023-03-31T12:09:35;12.30;99.90
13472;DHT22;6808;49.444;11.034;2023-03-31T12:12:21;12.40;99.90
13472;DHT22;6808;49.444;11.034;2023-03-31T12:14:50;12.40;99.90
13472;DHT22;6808;49.444;11.034;2023-03-31T12:17:20;12.60;99.90
13472;DHT22;6808;49.444;11.034;2023-03-31T12:19:49;13.00;99.90
13472;DHT22;6808;49.444;11.034;2023-03-31T12:22:29;13.40;99.90
13472;DHT22;6808;49.444;11.034;2023-03-31T12:24:57;13.70;99.90
13472;DHT22;6808;49.444;11.034;2023-03-31T12:30:00;13.80;99.90
13472;DHT22;6808;49.444;11.034;2023-03-31T12:32:42;13.70;99.90
13472;DHT22;6808;49.444;11.034;2023-03-31T12:41:39;13.60;99.90
13472;DHT22;6808;49.444;11.034;2023-03-31T12:54:34;13.30;99.90
13472;DHT22;6808;49.444;11.034;2023-03-31T12:59:37;13.30;99.90
13472;DHT22;6808;49.444;11.034;2023-03-31T13:04:42;13.10;99.90
13472;DHT22;6808;49.444;11.034;2023-03-31T13:10:00;12.70;99.90
13472;DHT22;6808;49.444;11.034;2023-03-31T13:13:13;11.80;99.90
13472;DHT22;6808;49.444;11.034;2023-03-31T13:15:39;11.30;99.90
13472;DHT22;6808;49.444;11.034;2023-03-31T13:18:06;10.90;99.90
13472;DHT22;6808;49.444;11.034;2023-03-31T13:23:16;10.80;99.90
13472;DHT22;6808;49.444;11.034;2023-03-31T13:25:54;10.70;99.90
13472;DHT22;6808;49.444;11.034;2023-03-31T13:30:48;11.10;99.90
13472;DHT22;6808;49.444;11.034;2023-03-31T13:33:40;11.20;99.90
13472;DHT22;6808;49.444;11.034;2023-03-31T13:38:52;11.80;99.90
13472;DHT22;6808;49.444;11.034;2023-03-31T13:47:32;12.50;99.90
13472;DHT22;6808;49.444;11.034;2023-03-31T14:06:36;12.70;99.90
13472;DHT22;6808;49.444;11.034;2023-03-31T14:09:11;12.70;99.90
13472;DHT22;6808;49.444;11.034;2023-03-31T14:11:38;12.70;99.90
13472;DHT22;6808;49.444;11.034;2023-03-31T14:14:15;12.60;99.90
13472;DHT22;6808;49.444;11.034;2023-03-31T14:19:41;12.50;99.90
13472;DHT22;6808;49.444;11.034;2023-03-31T14:22:36;12.60;99.90
13472;DHT22;6808;49.444;11.034;2023-03-31T14:34:03;12.90;99.90
13472;DHT22;6808;49.444;11.034;2023-03-31T14:36:52;12.90;99.90
13472;DHT22;6808;49.444;11.034;2023-03-31T14:39:25;12.90;99.90
13472;DHT22;6808;49.444;11.034;2023-03-31T14:41:53;13.00;99.90
13472;DHT22;6808;49.444;11.034;2023-03-31T14:44:20;13.10;99.90
13472;DHT22;6808;49.444;11.034;2023-03-31T14:46:46;13.20;99.90
13472;DHT22;6808;49.444;11.034;2023-03-31T14:49:25;13.30;99.90
13472;DHT22;6808;49.444;11.034;2023-03-31T14:51:53;13.40;99.80
13472;DHT22;6808;49.444;11.034;2023-03-31T14:54:19;13.50;99.40
13472;DHT22;6808;49.444;11.034;2023-03-31T14:56:49;13.50;98.80
13472;DHT22;6808;49.444;11.034;2023-03-31T14:59:37;13.40;98.50
13472;DHT22;6808;49.444;11.034;2023-03-31T15:02:03;13.20;98.50
13472;DHT22;6808;49.444;11.034;2023-03-31T15:04:31;13.10;98.20
13472;DHT22;6808;49.444;11.034;2023-03-31T15:07:00;13.40;98.50
13472;DHT22;6808;49.444;11.034;2023-03-31T15:09:28;12.90;98.40
13472;DHT22;6808;49.444;11.034;2023-03-31T15:12:00;13.00;99.10
13472;DHT22;6808;49.444;11.034;2023-03-31T15:14:41;13.00;98.00
13472;DHT22;6808;49.444;11.034;2023-03-31T15:17:22;13.00;98.50
13472;DHT22;6808;49.444;11.034;2023-03-31T15:19:53;13.10;98.20
13472;DHT22;6808;49.444;11.034;2023-03-31T15:22:22;13.20;98.90
13472;DHT22;6808;49.444;11.034;2023-03-31T15:24:48;13.20;99.00
13472;DHT22;6808;49.444;11.034;2023-03-31T15:27:46;13.20;98.50
13472;DHT22;6808;49.444;11.034;2023-03-31T15:30:19;13.10;97.80
13472;DHT22;6808;49.444;11.034;2023-03-31T15:32:45;13.10;97.50
13472;DHT22;6808;49.444;11.034;2023-03-31T15:35:26;13.00;98.10
13472;DHT22;6808;49.444;11.034;2023-03-31T15:37:55;13.00;97.60
13472;DHT22;6808;49.444;11.034;2023-03-31T15:40:25;13.00;97.60
13472;DHT22;6808;49.444;11.034;2023-03-31T15:43:04;12.90;97.60
13472;DHT22;6808;49.444;11.034;2023-03-31T15:45:36;12.90;98.20
13472;DHT22;6808;49.444;11.034;2023-03-31T15:48:04;13.00;98.20
13472;DHT22;6808;49.444;11.034;2023-03-31T15:50:31;13.10;98.20
13472;DHT22;6808;49.444;11.034;2023-03-31T15:52:57;13.20;97.90
13472;DHT22;6808;49.444;11.034;2023-03-31T15:55:39;13.30;97.90
13472;DHT22;6808;49.444;11.034;2023-03-31T15:58:07;13.40;97.30
13472;DHT22;6808;49.444;11.034;2023-03-31T16:00:41;13.40;97.00
13472;DHT22;6808;49.444;11.034;2023-03-31T16:03:27;13.40;96.70
13472;DHT22;6808;49.444;11.034;2023-03-31T16:05:56;13.40;96.50
13472;DHT22;6808;49.444;11.034;2023-03-31T16:09:02;13.40;96.70
13472;DHT22;6808;49.444;11.034;2023-03-31T16:11:37;13.40;97.00
13472;DHT22;6808;49.444;11.034;2023-03-31T16:14:12;13.30;96.40
13472;DHT22;6808;49.444;11.034;2023-03-31T16:16:42;13.20;95.90
13472;DHT22;6808;49.444;11.034;2023-03-31T16:19:09;13.10;96.00
13472;DHT22;6808;49.444;11.034;2023-03-31T16:21:39;13.00;96.20
13472;DHT22;6808;49.444;11.034;2023-03-31T16:24:06;12.90;95.80
13472;DHT22;6808;49.444;11.034;2023-03-31T16:26:32;12.90;96.30
13472;DHT22;6808;49.444;11.034;2023-03-31T16:28:58;12.80;96.80
13472;DHT22;6808;49.444;11.034;2023-03-31T16:31:30;12.80;96.90
13472;DHT22;6808;49.444;11.034;2023-03-31T16:33:58;12.70;96.60
13472;DHT22;6808;49.444;11.034;2023-03-31T16:36:24;12.60;96.80
13472;DHT22;6808;49.444;11.034;2023-03-31T16:38:51;12.60;96.70
13472;DHT22;6808;49.444;11.034;2023-03-31T16:41:18;12.50;96.70
13472;DHT22;6808;49.444;11.034;2023-03-31T16:43:44;12.50;97.10
13472;DHT22;6808;49.444;11.034;2023-03-31T16:46:10;12.50;96.80
13472;DHT22;6808;49.444;11.034;2023-03-31T16:48:36;12.40;96.60
13472;DHT22;6808;49.444;11.034;2023-03-31T16:51:02;12.30;96.90
13472;DHT22;6808;49.444;11.034;2023-03-31T16:53:30;12.40;97.30
13472;DHT22;6808;49.444;11.034;2023-03-31T16:55:58;12.40;97.90
13472;DHT22;6808;49.444;11.034;2023-03-31T16:58:24;12.30;98.30
13472;DHT22;6808;49.444;11.034;2023-03-31T17:00:51;12.30;98.40
13472;DHT22;6808;49.444;11.034;2023-03-31T17:03:17;12.20;98.60
13472;DHT22;6808;49.444;11.034;2023-03-31T17:05:44;12.00;99.80
13472;DHT22;6808;49.444;11.034;2023-03-31T17:08:11;12.00;99.90
13472;DHT22;6808;49.444;11.034;2023-03-31T17:10:38;11.90;99.90
13472;DHT22;6808;49.444;11.034;2023-03-31T17:13:05;11.80;99.90
13472;DHT22;6808;49.444;11.034;2023-03-31T17:15:31;11.70;99.90
13472;DHT22;6808;49.444;11.034;2023-03-31T17:17:57;11.70;99.90
13472;DHT22;6808;49.444;11.034;2023-03-31T17:20:24;11.70;99.90
13472;DHT22;6808;49.444;11.034;2023-03-31T17:22:50;11.70;99.90
13472;DHT22;6808;49.444;11.034;2023-03-31T17:25:16;11.60;99.90
13472;DHT22;6808;49.444;11.034;2023-03-31T17:27:43;11.70;99.90
13472;DHT22;6808;49.444;11.034;2023-03-31T17:30:10;11.60;99.90
13472;DHT22;6808;49.444;11.034;2023-03-31T17:32:35;11.70;99.90
13472;DHT22;6808;49.444;11.034;2023-03-31T17:35:01;11.70;99.90
13472;DHT22;6808;49.444;11.034;2023-03-31T17:37:28;11.70;99.90
13472;DHT22;6808;49.444;11.034;2023-03-31T17:39:54;11.70;99.90
13472;DHT22;6808;49.444;11.034;2023-03-31T17:42:20;11.60;99.90
13472;DHT22;6808;49.444;11.034;2023-03-31T17:44:46;11.50;99.90
13472;DHT22;6808;49.444;11.034;2023-03-31T17:47:15;11.50;99.90
13472;DHT22;6808;49.444;11.034;2023-03-31T17:49:40;11.50;99.90
13472;DHT22;6808;49.444;11.034;2023-03-31T17:52:06;11.50;99.90
13472;DHT22;6808;49.444;11.034;2023-03-31T17:54:32;11.50;99.90
13472;DHT22;6808;49.444;11.034;2023-03-31T17:56:57;11.50;99.90
13472;DHT22;6808;49.444;11.034;2023-03-31T17:59:23;11.50;99.90
13472;DHT22;6808;49.444;11.034;2023-03-31T18:01:49;11.40;99.90
13472;DHT22;6808;49.444;11.034;2023-03-31T18:04:15;11.30;99.60
13472;DHT22;6808;49.444;11.034;2023-03-31T18:06:42;11.30;99.90
13472;DHT22;6808;49.444;11.034;2023-03-31T18:09:09;11.30;99.90
13472;DHT22;6808;49.444;11.034;2023-03-31T18:11:35;11.30;99.90
13472;DHT22;6808;49.444;11.034;2023-03-31T18:14:02;11.30;99.90
13472;DHT22;6808;49.444;11.034;2023-03-31T18:16:30;11.30;99.90
13472;DHT22;6808;49.444;11.034;2023-03-31T18:18:56;11.20;99.90
13472;DHT22;6808;49.444;11.034;2023-03-31T18:21:24;11.10;99.90
13472;DHT22;6808;49.444;11.034;2023-03-31T18:23:50;11.10;99.90
13472;DHT22;6808;49.444;11.034;2023-03-31T18:26:17;11.00;99.90
13472;DHT22;6808;49.444;11.034;2023-03-31T18:28:44;11.00;99.90
13472;DHT22;6808;49.444;11.034;2023-03-31T18:31:10;10.90;99.90
13472;DHT22;6808;49.444;11.034;2023-03-31T18:33:37;10.90;99.90
13472;DHT22;6808;49.444;11.034;2023-03-31T18:36:03;10.80;99.90
13472;DHT22;6808;49.444;11.034;2023-03-31T18:38:30;10.80;99.90
13472;DHT22;6808;49.444;11.034;2023-03-31T18:40:56;10.80;99.90
13472;DHT22;6808;49.444;11.034;2023-03-31T18:43:23;10.70;99.90
13472;DHT22;6808;49.444;11.034;2023-03-31T18:45:50;10.70;99.90
13472;DHT22;6808;49.444;11.034;2023-03-31T18:48:16;10.70;99.90
13472;DHT22;6808;49.444;11.034;2023-03-31T18:50:43;10.60;99.90